createdAt,value
2022-10-17T00:01:56.528Z,83.31
2022-10-17T00:04:26.009Z,83.55
2022-10-17T00:06:55.552Z,83.86
2022-10-17T00:09:25.010Z,83.54
2022-10-17T00:11:57.022Z,83.32
2022-10-17T00:14:26.497Z,83.38
2022-10-17T00:16:55.947Z,82.85
2022-10-17T00:19:25.439Z,83.11
2022-10-17T00:21:54.896Z,82.96
2022-10-17T00:24:24.426Z,82.66
2022-10-17T00:26:53.900Z,83.05
2022-10-17T00:29:25.982Z,83.23
2022-10-17T00:31:57.510Z,83.62
2022-10-17T00:34:27.138Z,83.36
2022-10-17T00:36:56.572Z,83.71
2022-10-17T00:39:26.109Z,84.08
2022-10-17T00:41:55.562Z,84.26
2022-10-17T00:44:55.094Z,84.38
2022-10-17T00:47:27.124Z,85.80
2022-10-17T00:49:56.643Z,85.16
2022-10-17T00:52:27.668Z,85.63
2022-10-17T00:54:58.541Z,85.33
2022-10-17T00:57:28.046Z,85.54
2022-10-17T00:59:57.699Z,85.46
2022-10-17T01:02:30.003Z,84.39
2022-10-17T01:04:59.607Z,84.16
2022-10-17T01:07:33.167Z,84.63
2022-10-17T01:10:06.484Z,84.15
2022-10-17T01:12:40.678Z,83.42
2022-10-17T01:15:14.937Z,83.11
2022-10-17T01:17:55.183Z,83.11
2022-10-17T01:20:46.106Z,83.06
2022-10-17T01:23:27.745Z,82.86
2022-10-17T01:25:59.092Z,82.73
2022-10-17T01:28:50.116Z,83.22
2022-10-17T01:31:22.358Z,82.88
2022-10-17T01:33:57.552Z,83.28
2022-10-17T01:36:34.335Z,82.91
2022-10-17T01:39:06.104Z,82.98
2022-10-17T01:41:39.169Z,82.59
2022-10-17T01:44:11.900Z,82.63
2022-10-17T01:46:44.320Z,82.84
2022-10-17T01:49:13.936Z,83.03
2022-10-17T01:51:44.875Z,83.31
2022-10-17T01:54:15.888Z,82.78
2022-10-17T01:56:45.096Z,82.99
2022-10-17T01:59:15.489Z,82.63
2022-10-17T02:01:49.925Z,82.59
2022-10-17T02:04:19.474Z,82.29
2022-10-17T02:06:48.984Z,81.94
2022-10-17T02:09:22.756Z,81.87
2022-10-17T02:11:57.497Z,81.40
2022-10-17T02:14:31.292Z,81.96
2022-10-17T02:17:07.400Z,82.08
2022-10-17T02:19:47.187Z,81.74
2022-10-17T02:22:24.303Z,81.77
2022-10-17T02:24:55.780Z,82.12
2022-10-17T02:27:30.324Z,81.81
2022-10-17T02:30:01.832Z,81.73
2022-10-17T02:32:37.107Z,81.69
2022-10-17T02:35:06.942Z,80.93
2022-10-17T02:37:36.380Z,80.83
2022-10-17T02:40:06.143Z,80.59
2022-10-17T02:42:35.613Z,80.54
2022-10-17T02:45:05.070Z,80.66
2022-10-17T02:47:38.850Z,80.28
2022-10-17T02:50:09.387Z,80.56
2022-10-17T02:52:40.228Z,80.44
2022-10-17T02:55:12.516Z,80.21
2022-10-17T02:57:42.653Z,79.72
2022-10-17T03:00:14.159Z,80.18
2022-10-17T03:02:47.061Z,79.79
2022-10-17T03:05:20.732Z,79.91
2022-10-17T03:07:50.185Z,80.55
2022-10-17T03:10:19.765Z,80.60
2022-10-17T03:12:49.249Z,80.32
2022-10-17T03:15:18.955Z,80.33
2022-10-17T03:17:50.994Z,80.49
2022-10-17T03:20:20.472Z,79.99
2022-10-17T03:22:49.984Z,80.42
2022-10-17T03:25:19.480Z,80.49
2022-10-17T03:27:48.927Z,80.52
2022-10-17T03:30:18.434Z,80.50
2022-10-17T03:32:48.004Z,80.18
2022-10-17T03:35:20.245Z,79.55
2022-10-17T03:37:49.720Z,79.55
2022-10-17T03:40:19.320Z,79.58
2022-10-17T03:42:48.839Z,79.76
2022-10-17T03:45:18.680Z,79.55
2022-10-17T03:47:48.138Z,80.08
2022-10-17T03:50:20.240Z,80.05
2022-10-17T03:52:50.032Z,79.61
2022-10-17T03:55:19.706Z,79.41
2022-10-17T03:57:49.167Z,79.41
2022-10-17T04:00:18.836Z,79.52
2022-10-17T04:02:48.334Z,80.08
2022-10-17T04:05:20.452Z,79.32
2022-10-17T04:07:49.882Z,79.46
2022-10-17T04:10:19.369Z,79.26
2022-10-17T04:12:48.839Z,79.72
2022-10-17T04:15:18.425Z,79.54
2022-10-17T04:17:48.619Z,79.48
2022-10-17T04:20:20.792Z,79.85
2022-10-17T04:22:50.225Z,80.00
2022-10-17T04:25:19.871Z,79.86
2022-10-17T04:27:49.353Z,79.81
2022-10-17T04:30:19.131Z,79.60
2022-10-17T04:32:48.643Z,80.15
2022-10-17T04:35:20.722Z,80.03
2022-10-17T04:37:50.189Z,80.16
2022-10-17T04:40:19.872Z,80.30
2022-10-17T04:42:49.343Z,80.72
2022-10-17T04:45:18.973Z,80.36
2022-10-17T04:47:48.448Z,80.91
2022-10-17T04:50:20.751Z,81.14
2022-10-17T04:52:50.180Z,81.17
2022-10-17T04:55:19.718Z,81.40
2022-10-17T04:57:49.186Z,81.00
2022-10-17T05:00:18.877Z,80.60
2022-10-17T05:02:48.409Z,79.94
2022-10-17T05:05:20.548Z,79.66
2022-10-17T05:07:49.993Z,79.99
2022-10-17T05:10:19.478Z,79.44
2022-10-17T05:12:49.609Z,79.36
2022-10-17T05:15:19.267Z,79.74
2022-10-17T05:17:48.713Z,79.81
2022-10-17T05:20:20.758Z,79.57
2022-10-17T05:22:50.209Z,79.83
2022-10-17T05:25:19.694Z,80.51
2022-10-17T05:27:49.229Z,80.46
2022-10-17T05:30:18.792Z,80.71
2022-10-17T05:32:48.302Z,80.88
2022-10-17T05:35:20.445Z,81.26
2022-10-17T05:37:49.922Z,81.67
2022-10-17T05:40:19.490Z,81.80
2022-10-17T05:42:49.700Z,81.98
2022-10-17T05:45:19.235Z,82.02
2022-10-17T05:47:48.667Z,81.58
2022-10-17T05:50:22.157Z,81.53
2022-10-17T05:52:51.597Z,81.37
2022-10-17T05:55:21.473Z,81.58
2022-10-17T05:57:52.651Z,81.29
2022-10-17T06:00:22.461Z,81.61
2022-10-17T06:02:51.945Z,81.53
2022-10-17T06:05:24.046Z,81.71
2022-10-17T06:07:56.986Z,81.48
2022-10-17T06:10:29.194Z,81.18
2022-10-17T06:12:58.911Z,81.68
2022-10-17T06:15:28.365Z,81.72
2022-10-17T06:17:57.846Z,81.88
2022-10-17T06:20:29.937Z,81.94
2022-10-17T06:22:59.384Z,81.82
2022-10-17T06:25:29.271Z,81.89
2022-10-17T06:27:59.312Z,81.40
2022-10-17T06:30:28.977Z,81.25
2022-10-17T06:32:58.463Z,81.77
2022-10-17T06:35:30.508Z,81.59
2022-10-17T06:37:59.998Z,81.79
2022-10-17T06:40:30.297Z,81.98
2022-10-17T06:43:00.278Z,81.94
2022-10-17T06:45:29.756Z,81.87
2022-10-17T06:47:59.225Z,81.82
2022-10-17T06:50:31.252Z,81.82
2022-10-17T06:53:00.741Z,81.78
2022-10-17T06:55:30.198Z,82.19
2022-10-17T06:57:59.671Z,82.32
2022-10-17T07:00:29.412Z,81.90
2022-10-17T07:02:58.878Z,81.41
2022-10-17T07:05:30.915Z,81.03
2022-10-17T07:08:00.390Z,80.86
2022-10-17T07:10:29.860Z,81.15
2022-10-17T07:12:59.357Z,81.05
2022-10-17T07:15:28.925Z,80.83
2022-10-17T07:17:58.394Z,80.58
2022-10-17T07:20:27.958Z,80.71
2022-10-17T07:23:00.043Z,80.32
2022-10-17T07:25:29.858Z,79.84
2022-10-17T07:27:59.376Z,79.87
2022-10-17T07:30:29.069Z,80.29
2022-10-17T07:32:58.554Z,79.73
2022-10-17T07:35:28.015Z,79.53
2022-10-17T07:38:00.080Z,79.54
2022-10-17T07:40:29.516Z,78.87
2022-10-17T07:42:59.069Z,79.20
2022-10-17T07:45:28.507Z,78.96
2022-10-17T07:47:59.174Z,79.17
2022-10-17T07:50:29.247Z,79.45
2022-10-17T07:53:27.286Z,80.34
2022-10-17T07:55:56.715Z,81.30
2022-10-17T07:58:26.500Z,80.99
2022-10-17T08:00:56.055Z,80.54
2022-10-17T08:03:25.731Z,79.77
2022-10-17T08:05:55.188Z,79.34
2022-10-17T08:08:27.274Z,79.14
2022-10-17T08:10:58.657Z,78.94
2022-10-17T08:13:28.164Z,79.46
2022-10-17T08:15:57.650Z,79.80
2022-10-17T08:18:27.108Z,79.78
2022-10-17T08:20:59.412Z,79.01
2022-10-17T08:23:32.443Z,78.63
2022-10-17T08:26:02.585Z,78.46
2022-10-17T08:28:32.150Z,77.80
2022-10-17T08:31:08.518Z,78.30
2022-10-17T08:33:37.978Z,79.31
2022-10-17T08:36:08.068Z,79.73
2022-10-17T08:38:43.691Z,79.00
2022-10-17T08:41:17.983Z,78.10
2022-10-17T08:44:02.061Z,77.63
2022-10-17T08:46:32.841Z,77.12
2022-10-17T08:49:02.377Z,76.02
2022-10-17T08:51:33.558Z,74.82
2022-10-17T08:54:09.198Z,74.48
2022-10-17T08:56:48.555Z,73.51
2022-10-17T08:59:20.602Z,73.84
2022-10-17T09:01:52.407Z,73.34
2022-10-17T09:04:41.264Z,72.94
2022-10-17T09:07:13.391Z,73.93
2022-10-17T09:09:50.453Z,73.64
2022-10-17T09:12:20.738Z,72.66
2022-10-17T09:15:11.212Z,72.06
2022-10-17T09:17:45.626Z,70.45
2022-10-17T09:20:16.774Z,69.88
2022-10-17T09:22:48.277Z,69.91
2022-10-17T09:25:21.682Z,70.00
2022-10-17T09:27:52.662Z,68.62
2022-10-17T09:30:46.387Z,68.46
2022-10-17T09:33:35.118Z,69.53
2022-10-17T09:36:07.698Z,70.61
2022-10-17T09:38:41.148Z,71.36
2022-10-17T09:41:43.809Z,70.30
2022-10-17T09:44:19.351Z,69.82
2022-10-17T09:47:02.392Z,68.68
2022-10-17T09:49:34.526Z,67.78
2022-10-17T09:52:04.211Z,68.50
2022-10-17T09:54:40.671Z,66.71
2022-10-17T09:57:13.523Z,66.47
2022-10-17T09:59:45.007Z,67.58
2022-10-17T10:02:19.915Z,66.68
2022-10-17T10:05:18.963Z,66.24
2022-10-17T10:08:03.784Z,66.27
2022-10-17T10:10:33.555Z,66.50
2022-10-17T10:13:17.954Z,67.83
2022-10-17T10:15:47.929Z,69.71
2022-10-17T10:18:32.295Z,70.00
2022-10-17T10:21:10.652Z,69.19
2022-10-17T10:23:41.930Z,69.47
2022-10-17T10:26:33.006Z,68.63
2022-10-17T10:29:07.038Z,68.97
2022-10-17T10:31:38.278Z,68.44
2022-10-17T10:34:18.075Z,65.65
2022-10-17T10:36:49.328Z,66.65
2022-10-17T10:39:35.229Z,64.58
2022-10-17T10:42:05.585Z,64.73
2022-10-17T10:44:37.729Z,64.74
2022-10-17T10:47:26.280Z,64.58
2022-10-17T10:49:56.921Z,64.36
2022-10-17T10:52:32.133Z,62.92
2022-10-17T10:55:06.616Z,61.90
2022-10-17T10:57:36.595Z,61.81
2022-10-17T11:00:12.843Z,61.07
2022-10-17T11:02:45.809Z,58.69
2022-10-17T11:05:17.985Z,57.38
2022-10-17T11:07:52.479Z,58.37
2022-10-17T11:10:24.901Z,56.84
2022-10-17T11:12:56.271Z,54.83
2022-10-17T11:15:31.047Z,53.78
2022-10-17T11:18:02.075Z,54.14
2022-10-17T11:20:39.468Z,53.83
2022-10-17T11:23:20.739Z,54.16
2022-10-17T11:25:51.187Z,55.33
2022-10-17T11:28:21.634Z,54.11
2022-10-17T11:30:55.432Z,55.31
2022-10-17T11:33:30.505Z,53.45
2022-10-17T11:36:04.644Z,55.40
2022-10-17T11:38:39.883Z,55.07
2022-10-17T11:41:09.353Z,55.48
2022-10-17T11:43:40.752Z,55.58
2022-10-17T11:46:17.103Z,54.65
2022-10-17T11:48:48.303Z,54.01
2022-10-17T11:54:09.823Z,52.90
2022-10-17T11:56:43.560Z,52.72
2022-10-17T11:59:47.457Z,51.89
2022-10-17T12:02:21.357Z,50.37
2022-10-17T12:04:56.552Z,50.73
2022-10-17T12:07:30.191Z,50.48
2022-10-17T12:10:02.212Z,49.41
2022-10-17T12:12:33.263Z,50.36
2022-10-17T12:15:29.984Z,51.08
2022-10-17T12:18:03.025Z,50.73
2022-10-17T12:20:34.260Z,49.61
2022-10-17T12:23:26.442Z,49.04
2022-10-17T12:26:01.135Z,49.67
2022-10-17T12:28:33.939Z,49.65
2022-10-17T12:31:05.791Z,48.71
2022-10-17T12:33:40.229Z,49.31
2022-10-17T12:36:51.166Z,49.84
